sensor_id;sensor_type;location;lat;lon;timestamp;pressure;altitude;pressure_sealevel;temperature;humidity
12360;BME280;6244;51.460;7.090;2023-02-18T00:00:57;101245.13;;;11.51;75.59
12360;BME280;6244;51.460;7.090;2023-02-18T00:05:55;101245.19;;;11.50;75.53
12360;BME280;6244;51.460;7.090;2023-02-18T00:10:51;101244.50;;;11.46;75.45
12360;BME280;6244;51.460;7.090;2023-02-18T00:15:48;101253.31;;;11.45;75.73
12360;BME280;6244;51.460;7.090;2023-02-18T00:20:44;101243.63;;;11.45;75.73
12360;BME280;6244;51.460;7.090;2023-02-18T00:25:45;101242.84;;;11.43;75.71
12360;BME280;6244;51.460;7.090;2023-02-18T00:30:42;101235.75;;;11.45;75.79
12360;BME280;6244;51.460;7.090;2023-02-18T00:35:39;101222.69;;;11.44;75.79
12360;BME280;6244;51.460;7.090;2023-02-18T00:40:36;101208.78;;;11.42;75.80
12360;BME280;6244;51.460;7.090;2023-02-18T00:45:34;101216.59;;;11.43;75.58
12360;BME280;6244;51.460;7.090;2023-02-18T00:50:30;101222.63;;;11.45;75.85
12360;BME280;6244;51.460;7.090;2023-02-18T00:55:27;101205.22;;;11.43;75.78
12360;BME280;6244;51.460;7.090;2023-02-18T01:00:23;101201.75;;;11.42;76.05
12360;BME280;6244;51.460;7.090;2023-02-18T01:05:21;101189.53;;;11.41;75.87
12360;BME280;6244;51.460;7.090;2023-02-18T01:10:18;101187.75;;;11.42;75.99
12360;BME280;6244;51.460;7.090;2023-02-18T01:15:15;101182.53;;;11.40;76.27
12360;BME280;6244;51.460;7.090;2023-02-18T01:20:13;101191.28;;;11.41;76.30
12360;BME280;6244;51.460;7.090;2023-02-18T01:25:11;101190.41;;;11.40;76.34
12360;BME280;6244;51.460;7.090;2023-02-18T01:30:11;101192.19;;;11.40;76.47
12360;BME280;6244;51.460;7.090;2023-02-18T01:35:10;101173.03;;;11.38;76.40
12360;BME280;6244;51.460;7.090;2023-02-18T01:40:09;101176.59;;;11.37;76.41
12360;BME280;6244;51.460;7.090;2023-02-18T01:50:46;101159.19;;;11.34;76.51
12360;BME280;6244;51.460;7.090;2023-02-18T01:55:43;101166.28;;;11.32;76.41
12360;BME280;6244;51.460;7.090;2023-02-18T02:00:41;101157.41;;;11.35;76.48
12360;BME280;6244;51.460;7.090;2023-02-18T02:05:38;101162.66;;;11.35;76.54
12360;BME280;6244;51.460;7.090;2023-02-18T02:10:45;101159.19;;;11.34;76.32
12360;BME280;6244;51.460;7.090;2023-02-18T02:15:49;101138.16;;;11.34;76.52
12360;BME280;6244;51.460;7.090;2023-02-18T02:21:13;101142.72;;;11.31;76.32
12360;BME280;6244;51.460;7.090;2023-02-18T02:26:54;101137.59;;;11.28;76.50
12360;BME280;6244;51.460;7.090;2023-02-18T02:32:04;101130.50;;;11.30;76.64
12360;BME280;6244;51.460;7.090;2023-02-18T02:37:11;101118.22;;;11.30;76.35
12360;BME280;6244;51.460;7.090;2023-02-18T02:42:16;101117.41;;;11.28;76.55
12360;BME280;6244;51.460;7.090;2023-02-18T02:47:19;101113.09;;;11.27;76.37
12360;BME280;6244;51.460;7.090;2023-02-18T02:52:23;101116.56;;;11.28;76.37
12360;BME280;6244;51.460;7.090;2023-02-18T02:57:46;101111.38;;;11.26;76.46
12360;BME280;6244;51.460;7.090;2023-02-18T03:03:04;101109.69;;;11.25;76.28
12360;BME280;6244;51.460;7.090;2023-02-18T03:08:16;101097.47;;;11.24;76.51
12360;BME280;6244;51.460;7.090;2023-02-18T03:13:25;101085.28;;;11.23;76.48
12360;BME280;6244;51.460;7.090;2023-02-18T03:18:33;101066.03;;;11.23;76.58
12360;BME280;6244;51.460;7.090;2023-02-18T03:23:35;101059.94;;;11.22;76.59
12360;BME280;6244;51.460;7.090;2023-02-18T03:28:34;101045.88;;;11.23;76.78
12360;BME280;6244;51.460;7.090;2023-02-18T03:33:34;101040.63;;;11.23;76.78
12360;BME280;6244;51.460;7.090;2023-02-18T03:38:39;101037.13;;;11.23;76.79
12360;BME280;6244;51.460;7.090;2023-02-18T03:43:39;101032.88;;;11.20;77.15
12360;BME280;6244;51.460;7.090;2023-02-18T03:48:35;101030.25;;;11.20;77.16
12360;BME280;6244;51.460;7.090;2023-02-18T03:53:33;101031.25;;;11.17;77.43
12360;BME280;6244;51.460;7.090;2023-02-18T03:58:30;101012.91;;;11.16;77.64
12360;BME280;6244;51.460;7.090;2023-02-18T04:03:27;101025.16;;;11.17;77.61
12360;BME280;6244;51.460;7.090;2023-02-18T04:08:24;101010.28;;;11.16;77.74
12360;BME280;6244;51.460;7.090;2023-02-18T04:13:22;101001.66;;;11.14;77.91
12360;BME280;6244;51.460;7.090;2023-02-18T04:18:19;101000.72;;;11.15;77.97
12360;BME280;6244;51.460;7.090;2023-02-18T04:23:16;100994.53;;;11.16;77.76
12360;BME280;6244;51.460;7.090;2023-02-18T04:28:14;100984.03;;;11.16;77.81
12360;BME280;6244;51.460;7.090;2023-02-18T04:33:12;100982.41;;;11.13;77.85
12360;BME280;6244;51.460;7.090;2023-02-18T04:38:09;100971.13;;;11.11;77.96
12360;BME280;6244;51.460;7.090;2023-02-18T04:43:06;100960.72;;;11.10;78.04
12360;BME280;6244;51.460;7.090;2023-02-18T04:48:03;100951.22;;;11.07;78.47
12360;BME280;6244;51.460;7.090;2023-02-18T04:53:01;100955.69;;;11.05;78.36
12360;BME280;6244;51.460;7.090;2023-02-18T04:57:58;100952.22;;;11.05;78.64
12360;BME280;6244;51.460;7.090;2023-02-18T05:02:55;100940.06;;;11.02;78.82
12360;BME280;6244;51.460;7.090;2023-02-18T05:07:51;100938.34;;;11.01;78.87
12360;BME280;6244;51.460;7.090;2023-02-18T05:12:49;100921.84;;;10.99;79.05
12360;BME280;6244;51.460;7.090;2023-02-18T05:17:46;100935.88;;;10.98;79.11
12360;BME280;6244;51.460;7.090;2023-02-18T05:22:42;100915.81;;;10.97;79.02
12360;BME280;6244;51.460;7.090;2023-02-18T05:27:39;100914.28;;;10.93;79.16
12360;BME280;6244;51.460;7.090;2023-02-18T05:32:36;100901.84;;;10.97;79.12
12360;BME280;6244;51.460;7.090;2023-02-18T05:37:33;100890.47;;;10.96;79.11
12360;BME280;6244;51.460;7.090;2023-02-18T05:42:29;100888.84;;;10.94;79.32
12360;BME280;6244;51.460;7.090;2023-02-18T05:47:27;100888.09;;;10.92;79.37
12360;BME280;6244;51.460;7.090;2023-02-18T05:52:25;100869.72;;;10.92;79.22
12360;BME280;6244;51.460;7.090;2023-02-18T05:57:21;100864.59;;;10.88;79.51
12360;BME280;6244;51.460;7.090;2023-02-18T06:02:17;100869.91;;;10.87;79.48
12360;BME280;6244;51.460;7.090;2023-02-18T06:07:14;100859.41;;;10.87;79.54
12360;BME280;6244;51.460;7.090;2023-02-18T06:12:12;100856.03;;;10.85;79.40
12360;BME280;6244;51.460;7.090;2023-02-18T06:17:10;100866.59;;;10.83;79.71
12360;BME280;6244;51.460;7.090;2023-02-18T06:22:07;100862.34;;;10.81;79.70
12360;BME280;6244;51.460;7.090;2023-02-18T06:27:03;100862.44;;;10.79;79.68
12360;BME280;6244;51.460;7.090;2023-02-18T06:32:01;100846.72;;;10.78;79.81
12360;BME280;6244;51.460;7.090;2023-02-18T06:36:58;100847.66;;;10.77;80.00
12360;BME280;6244;51.460;7.090;2023-02-18T06:41:54;100859.84;;;10.78;80.07
12360;BME280;6244;51.460;7.090;2023-02-18T06:46:51;100852.13;;;10.75;79.98
12360;BME280;6244;51.460;7.090;2023-02-18T06:51:48;100863.56;;;10.74;79.87
12360;BME280;6244;51.460;7.090;2023-02-18T06:56:45;100864.56;;;10.71;79.98
12360;BME280;6244;51.460;7.090;2023-02-18T07:01:42;100866.41;;;10.69;80.16
12360;BME280;6244;51.460;7.090;2023-02-18T07:06:38;100856.78;;;10.70;80.29
12360;BME280;6244;51.460;7.090;2023-02-18T07:11:37;100848.13;;;10.68;80.11
12360;BME280;6244;51.460;7.090;2023-02-18T07:16:33;100845.72;;;10.63;80.26
12360;BME280;6244;51.460;7.090;2023-02-18T07:21:30;100857.97;;;10.63;80.45
12360;BME280;6244;51.460;7.090;2023-02-18T07:26:26;100860.69;;;10.61;80.46
12360;BME280;6244;51.460;7.090;2023-02-18T07:31:24;100875.56;;;10.61;80.69
12360;BME280;6244;51.460;7.090;2023-02-18T07:36:27;100874.81;;;10.58;80.42
12360;BME280;6244;51.460;7.090;2023-02-18T07:41:24;100876.50;;;10.59;80.27
12360;BME280;6244;51.460;7.090;2023-02-18T07:46:28;100876.66;;;10.56;80.57
12360;BME280;6244;51.460;7.090;2023-02-18T07:51:25;100874.81;;;10.58;80.08
12360;BME280;6244;51.460;7.090;2023-02-18T07:56:21;100874.03;;;10.56;80.27
12360;BME280;6244;51.460;7.090;2023-02-18T08:01:18;100886.31;;;10.56;80.09
12360;BME280;6244;51.460;7.090;2023-02-18T08:06:20;100895.94;;;10.55;79.87
12360;BME280;6244;51.460;7.090;2023-02-18T08:11:17;100894.28;;;10.53;79.83
12360;BME280;6244;51.460;7.090;2023-02-18T08:16:14;100897.75;;;10.53;80.02
12360;BME280;6244;51.460;7.090;2023-02-18T08:21:11;100897.72;;;10.55;79.69
12360;BME280;6244;51.460;7.090;2023-02-18T08:26:09;100895.13;;;10.53;79.98
12360;BME280;6244;51.460;7.090;2023-02-18T08:31:05;100902.72;;;10.41;80.00
12360;BME280;6244;51.460;7.090;2023-02-18T08:36:06;100894.25;;;10.36;80.38
12360;BME280;6244;51.460;7.090;2023-02-18T08:41:06;100887.28;;;10.35;80.44
12360;BME280;6244;51.460;7.090;2023-02-18T08:46:04;100904.59;;;10.39;80.70
12360;BME280;6244;51.460;7.090;2023-02-18T08:51:10;100897.72;;;10.36;80.65
12360;BME280;6244;51.460;7.090;2023-02-18T08:56:08;100885.53;;;10.35;80.81
12360;BME280;6244;51.460;7.090;2023-02-18T09:01:08;100897.00;;;10.33;81.06
12360;BME280;6244;51.460;7.090;2023-02-18T09:06:06;100903.19;;;10.32;80.93
12360;BME280;6244;51.460;7.090;2023-02-18T09:11:04;100904.09;;;10.31;80.95
12360;BME280;6244;51.460;7.090;2023-02-18T09:16:02;100892.81;;;10.28;81.25
12360;BME280;6244;51.460;7.090;2023-02-18T09:21:03;100893.72;;;10.27;81.06
12360;BME280;6244;51.460;7.090;2023-02-18T09:26:03;100893.72;;;10.27;81.03
12360;BME280;6244;51.460;7.090;2023-02-18T09:31:03;100890.16;;;10.30;80.83
12360;BME280;6244;51.460;7.090;2023-02-18T09:36:01;100891.97;;;10.28;80.88
12360;BME280;6244;51.460;7.090;2023-02-18T09:40:59;100899.81;;;10.28;80.48
12360;BME280;6244;51.460;7.090;2023-02-18T09:45:58;100887.78;;;10.24;80.60
12360;BME280;6244;51.460;7.090;2023-02-18T09:50:56;100888.78;;;10.21;80.20
12360;BME280;6244;51.460;7.090;2023-02-18T09:55:55;100894.03;;;10.21;80.38
12360;BME280;6244;51.460;7.090;2023-02-18T10:00:56;100894.91;;;10.20;80.15
12360;BME280;6244;51.460;7.090;2023-02-18T10:06:01;100887.06;;;10.20;80.21
12360;BME280;6244;51.460;7.090;2023-02-18T10:11:00;100878.28;;;10.21;80.14
12360;BME280;6244;51.460;7.090;2023-02-18T10:15:57;100879.34;;;10.17;79.79
12360;BME280;6244;51.460;7.090;2023-02-18T10:21:02;100885.63;;;10.13;80.06
12360;BME280;6244;51.460;7.090;2023-02-18T10:26:02;100896.97;;;10.14;80.27
12360;BME280;6244;51.460;7.090;2023-02-18T10:31:04;100895.19;;;10.14;80.11
12360;BME280;6244;51.460;7.090;2023-02-18T10:36:16;100903.13;;;10.13;80.09
12360;BME280;6244;51.460;7.090;2023-02-18T10:41:24;100917.94;;;10.14;80.42
12360;BME280;6244;51.460;7.090;2023-02-18T10:46:31;100910.91;;;10.14;80.54
12360;BME280;6244;51.460;7.090;2023-02-18T10:51:34;100934.44;;;10.16;80.58
12360;BME280;6244;51.460;7.090;2023-02-18T10:56:38;100932.81;;;10.13;80.58
12360;BME280;6244;51.460;7.090;2023-02-18T11:01:34;100931.19;;;10.11;80.86
12360;BME280;6244;51.460;7.090;2023-02-18T11:06:33;100932.09;;;10.10;80.88
12360;BME280;6244;51.460;7.090;2023-02-18T11:11:37;100947.78;;;10.11;81.06
12360;BME280;6244;51.460;7.090;2023-02-18T11:16:38;100947.78;;;10.11;81.06
12360;BME280;6244;51.460;7.090;2023-02-18T11:21:36;100944.22;;;10.12;80.86
12360;BME280;6244;51.460;7.090;2023-02-18T11:26:35;100940.06;;;10.08;81.29
12360;BME280;6244;51.460;7.090;2023-02-18T11:31:39;100932.19;;;10.08;81.24
12360;BME280;6244;51.460;7.090;2023-02-18T11:36:37;100943.66;;;10.06;81.14
12360;BME280;6244;51.460;7.090;2023-02-18T11:41:37;100936.66;;;10.06;81.27
12360;BME280;6244;51.460;7.090;2023-02-18T11:46:35;100935.00;;;10.04;81.55
12360;BME280;6244;51.460;7.090;2023-02-18T11:51:33;100942.84;;;10.04;81.81
12360;BME280;6244;51.460;7.090;2023-02-18T11:56:32;100936.75;;;10.03;81.79
12360;BME280;6244;51.460;7.090;2023-02-18T12:01:42;100938.69;;;9.99;82.05
12360;BME280;6244;51.460;7.090;2023-02-18T12:06:50;100930.75;;;10.01;82.09
12360;BME280;6244;51.460;7.090;2023-02-18T12:11:50;100940.22;;;10.04;81.90
12360;BME280;6244;51.460;7.090;2023-02-18T12:17:04;100932.44;;;10.02;81.89
12360;BME280;6244;51.460;7.090;2023-02-18T12:22:11;100928.91;;;10.03;82.15
12360;BME280;6244;51.460;7.090;2023-02-18T12:27:15;100924.50;;;10.04;82.24
12360;BME280;6244;51.460;7.090;2023-02-18T12:32:26;100923.66;;;10.03;82.28
12360;BME280;6244;51.460;7.090;2023-02-18T12:37:51;100935.91;;;10.02;82.29
12360;BME280;6244;51.460;7.090;2023-02-18T12:42:56;100916.63;;;10.04;82.33
12360;BME280;6244;51.460;7.090;2023-02-18T12:53:24;100919.41;;;10.00;82.68
12360;BME280;6244;51.460;7.090;2023-02-18T12:58:33;100911.41;;;10.04;82.56
12360;BME280;6244;51.460;7.090;2023-02-18T13:04:11;100917.47;;;10.04;82.47
12360;BME280;6244;51.460;7.090;2023-02-18T13:09:20;100916.59;;;10.05;82.43
12360;BME280;6244;51.460;7.090;2023-02-18T13:14:22;100920.00;;;10.07;82.58
12360;BME280;6244;51.460;7.090;2023-02-18T13:19:21;100919.25;;;10.04;82.72
12360;BME280;6244;51.460;7.090;2023-02-18T13:24:28;100911.47;;;10.02;82.87
12360;BME280;6244;51.460;7.090;2023-02-18T13:29:31;100917.44;;;10.06;82.92
12360;BME280;6244;51.460;7.090;2023-02-18T13:34:30;100912.59;;;9.96;82.87
12360;BME280;6244;51.460;7.090;2023-02-18T13:39:29;100916.59;;;10.05;82.58
12360;BME280;6244;51.460;7.090;2023-02-18T13:49:57;100918.16;;;10.09;82.93
12360;BME280;6244;51.460;7.090;2023-02-18T13:54:55;100918.16;;;10.09;82.83
12360;BME280;6244;51.460;7.090;2023-02-18T13:59:56;100910.34;;;10.08;82.93
12360;BME280;6244;51.460;7.090;2023-02-18T14:04:54;100901.50;;;10.10;83.05
12360;BME280;6244;51.460;7.090;2023-02-18T14:09:52;100900.56;;;10.11;83.17
12360;BME280;6244;51.460;7.090;2023-02-18T14:14:50;100902.19;;;10.14;83.10
12360;BME280;6244;51.460;7.090;2023-02-18T14:19:52;100904.03;;;10.12;83.02
12360;BME280;6244;51.460;7.090;2023-02-18T14:24:55;100892.78;;;10.10;83.07
12360;BME280;6244;51.460;7.090;2023-02-18T14:29:53;100909.28;;;10.12;83.06
12360;BME280;6244;51.460;7.090;2023-02-18T14:35:12;100903.13;;;10.13;83.07
12360;BME280;6244;51.460;7.090;2023-02-18T14:40:27;100910.06;;;10.14;83.22
12360;BME280;6244;51.460;7.090;2023-02-18T14:45:44;100912.69;;;10.14;83.00
12360;BME280;6244;51.460;7.090;2023-02-18T14:50:47;100916.16;;;10.14;83.20
12360;BME280;6244;51.460;7.090;2023-02-18T14:55:47;100916.09;;;10.16;83.23
12360;BME280;6244;51.460;7.090;2023-02-18T15:00:45;100919.56;;;10.16;83.30
12360;BME280;6244;51.460;7.090;2023-02-18T15:05:43;100915.13;;;10.18;83.33
12360;BME280;6244;51.460;7.090;2023-02-18T15:10:41;100912.44;;;10.20;83.33
12360;BME280;6244;51.460;7.090;2023-02-18T15:15:40;100915.97;;;10.19;82.93
12360;BME280;6244;51.460;7.090;2023-02-18T15:20:40;100906.34;;;10.19;83.38
12360;BME280;6244;51.460;7.090;2023-02-18T15:25:37;100913.28;;;10.20;83.50
12360;BME280;6244;51.460;7.090;2023-02-18T15:30:36;100929.00;;;10.20;83.19
12360;BME280;6244;51.460;7.090;2023-02-18T15:35:33;100932.47;;;10.21;83.24
12360;BME280;6244;51.460;7.090;2023-02-18T15:40:33;100919.44;;;10.19;83.49
12360;BME280;6244;51.460;7.090;2023-02-18T15:45:34;100908.22;;;10.16;83.58
12360;BME280;6244;51.460;7.090;2023-02-18T15:50:36;100916.09;;;10.16;83.58
12360;BME280;6244;51.460;7.090;2023-02-18T15:55:37;100923.94;;;10.16;83.54
12360;BME280;6244;51.460;7.090;2023-02-18T16:00:38;100922.25;;;10.15;83.34
12360;BME280;6244;51.460;7.090;2023-02-18T16:05:37;100931.72;;;10.19;83.49
12360;BME280;6244;51.460;7.090;2023-02-18T16:10:43;100930.84;;;10.18;83.59
12360;BME280;6244;51.460;7.090;2023-02-18T16:15:44;100929.94;;;10.19;83.58
12360;BME280;6244;51.460;7.090;2023-02-18T16:20:41;100937.81;;;10.19;83.37
12360;BME280;6244;51.460;7.090;2023-02-18T16:25:44;100942.13;;;10.20;83.56
12360;BME280;6244;51.460;7.090;2023-02-18T16:30:42;100945.47;;;10.24;83.42
12360;BME280;6244;51.460;7.090;2023-02-18T16:35:41;100930.59;;;10.24;83.26
12360;BME280;6244;51.460;7.090;2023-02-18T16:40:38;100936.63;;;10.26;83.38
12360;BME280;6244;51.460;7.090;2023-02-18T16:45:42;100922.00;;;10.21;83.23
12360;BME280;6244;51.460;7.090;2023-02-18T16:50:40;100897.19;;;10.09;83.28
12360;BME280;6244;51.460;7.090;2023-02-18T16:55:36;100936.53;;;10.28;83.11
12360;BME280;6244;51.460;7.090;2023-02-18T17:00:33;100911.00;;;10.13;82.98
12360;BME280;6244;51.460;7.090;2023-02-18T17:12:08;100942.94;;;10.22;83.10
12360;BME280;6244;51.460;7.090;2023-02-18T17:28:32;100924.38;;;10.07;82.99
12360;BME280;6244;51.460;7.090;2023-02-18T17:33:39;100938.84;;;10.15;83.03
12360;BME280;6244;51.460;7.090;2023-02-18T17:39:04;100934.03;;;10.06;82.82
12360;BME280;6244;51.460;7.090;2023-02-18T17:44:16;100926.94;;;10.08;82.82
12360;BME280;6244;51.460;7.090;2023-02-18T17:49:36;100940.91;;;10.09;82.71
12360;BME280;6244;51.460;7.090;2023-02-18T17:54:35;100925.94;;;10.11;82.79
12360;BME280;6244;51.460;7.090;2023-02-18T17:59:36;100930.00;;;10.18;82.79
12360;BME280;6244;51.460;7.090;2023-02-18T18:04:34;100919.00;;;10.10;82.76
12360;BME280;6244;51.460;7.090;2023-02-18T18:09:43;100937.72;;;10.21;82.77
12360;BME280;6244;51.460;7.090;2023-02-18T18:14:44;100948.75;;;10.29;83.02
12360;BME280;6244;51.460;7.090;2023-02-18T18:19:42;100930.75;;;10.21;82.96
12360;BME280;6244;51.460;7.090;2023-02-18T18:24:39;100946.19;;;10.27;82.93
12360;BME280;6244;51.460;7.090;2023-02-18T18:29:37;100933.22;;;10.24;83.06
12360;BME280;6244;51.460;7.090;2023-02-18T18:34:36;100935.78;;;10.26;82.88
12360;BME280;6244;51.460;7.090;2023-02-18T18:39:32;100949.09;;;10.21;83.13
12360;BME280;6244;51.460;7.090;2023-02-18T18:44:29;100951.56;;;10.24;83.21
12360;BME280;6244;51.460;7.090;2023-02-18T18:49:25;100941.16;;;10.23;83.19
12360;BME280;6244;51.460;7.090;2023-02-18T18:54:23;100946.47;;;10.21;83.38
12360;BME280;6244;51.460;7.090;2023-02-18T18:59:20;100926.56;;;10.16;83.17
12360;BME280;6244;51.460;7.090;2023-02-18T19:04:16;100932.38;;;10.24;83.29
12360;BME280;6244;51.460;7.090;2023-02-18T19:09:16;100929.75;;;10.24;83.11
12360;BME280;6244;51.460;7.090;2023-02-18T19:14:14;100929.94;;;10.19;83.36
12360;BME280;6244;51.460;7.090;2023-02-18T19:19:11;100923.94;;;10.16;83.44
12360;BME280;6244;51.460;7.090;2023-02-18T19:24:10;100915.16;;;10.17;83.40
12360;BME280;6244;51.460;7.090;2023-02-18T19:29:06;100925.53;;;10.20;83.55
12360;BME280;6244;51.460;7.090;2023-02-18T19:34:06;100927.25;;;10.21;83.21
12360;BME280;6244;51.460;7.090;2023-02-18T19:39:05;100902.41;;;10.09;83.42
12360;BME280;6244;51.460;7.090;2023-02-18T19:44:05;100930.75;;;10.21;83.36
12360;BME280;6244;51.460;7.090;2023-02-18T19:49:06;100919.63;;;10.15;83.21
12360;BME280;6244;51.460;7.090;2023-02-18T19:54:04;100924.69;;;10.19;83.55
12360;BME280;6244;51.460;7.090;2023-02-18T19:59:01;100922.00;;;10.21;83.37
12360;BME280;6244;51.460;7.090;2023-02-18T20:03:59;100904.56;;;10.20;83.51
12360;BME280;6244;51.460;7.090;2023-02-18T20:08:59;100915.97;;;10.19;83.36
12360;BME280;6244;51.460;7.090;2023-02-18T20:13:59;100890.84;;;10.13;83.27
12360;BME280;6244;51.460;7.090;2023-02-18T20:18:59;100874.75;;;10.02;83.29
12360;BME280;6244;51.460;7.090;2023-02-18T20:23:59;100864.16;;;10.05;83.32
12360;BME280;6244;51.460;7.090;2023-02-18T20:28:59;100872.50;;;10.13;83.17
12360;BME280;6244;51.460;7.090;2023-02-18T20:34:44;100865.72;;;10.09;83.44
12360;BME280;6244;51.460;7.090;2023-02-18T20:39:19;100851.09;;;10.04;83.28
12360;BME280;6244;51.460;7.090;2023-02-18T20:44:18;100860.41;;;10.11;83.34
12360;BME280;6244;51.460;7.090;2023-02-18T21:00:42;100876.63;;;10.19;83.12
12360;BME280;6244;51.460;7.090;2023-02-18T21:05:43;100834.50;;;10.03;83.09
12360;BME280;6244;51.460;7.090;2023-02-18T21:11:13;100843.38;;;10.00;83.14
12360;BME280;6244;51.460;7.090;2023-02-18T21:16:12;100829.56;;;9.97;83.43
12360;BME280;6244;51.460;7.090;2023-02-18T21:21:17;100835.31;;;10.05;83.04
12360;BME280;6244;51.460;7.090;2023-02-18T21:26:23;100857.47;;;10.17;83.12
12360;BME280;6244;51.460;7.090;2023-02-18T21:31:24;100834.25;;;10.09;83.25
12360;BME280;6244;51.460;7.090;2023-02-18T21:36:23;100845.28;;;10.16;83.15
12360;BME280;6244;51.460;7.090;2023-02-18T21:41:22;100855.78;;;10.16;83.40
12360;BME280;6244;51.460;7.090;2023-02-18T21:46:21;100859.31;;;10.15;83.37
12360;BME280;6244;51.460;7.090;2023-02-18T21:51:17;100867.97;;;10.17;83.25
12360;BME280;6244;51.460;7.090;2023-02-18T21:56:35;100859.25;;;10.16;83.42
12360;BME280;6244;51.460;7.090;2023-02-18T22:01:32;100863.72;;;10.14;83.27
12360;BME280;6244;51.460;7.090;2023-02-18T22:06:28;100857.63;;;10.14;83.31
12360;BME280;6244;51.460;7.090;2023-02-18T22:11:25;100851.53;;;10.13;83.64
12360;BME280;6244;51.460;7.090;2023-02-18T22:16:23;100852.38;;;10.14;83.52
12360;BME280;6244;51.460;7.090;2023-02-18T22:21:20;100824.38;;;10.14;83.35
12360;BME280;6244;51.460;7.090;2023-02-18T22:26:17;100809.72;;;10.10;83.58
12360;BME280;6244;51.460;7.090;2023-02-18T22:31:14;100817.44;;;10.13;83.70
12360;BME280;6244;51.460;7.090;2023-02-18T22:36:12;100794.78;;;10.12;83.64
12360;BME280;6244;51.460;7.090;2023-02-18T22:41:10;100784.28;;;10.12;83.89
12360;BME280;6244;51.460;7.090;2023-02-18T22:46:09;100783.34;;;10.13;83.54
12360;BME280;6244;51.460;7.090;2023-02-18T22:51:08;100768.53;;;10.12;83.47
12360;BME280;6244;51.460;7.090;2023-02-18T22:56:08;100767.63;;;10.13;83.71
12360;BME280;6244;51.460;7.090;2023-02-18T23:01:06;100806.88;;;10.15;83.67
12360;BME280;6244;51.460;7.090;2023-02-18T23:06:05;100785.06;;;10.14;83.75
12360;BME280;6244;51.460;7.090;2023-02-18T23:11:03;100779.81;;;10.14;83.57
12360;BME280;6244;51.460;7.090;2023-02-18T23:16:04;100790.44;;;10.11;83.62
12360;BME280;6244;51.460;7.090;2023-02-18T23:21:03;100791.38;;;10.10;83.83
12360;BME280;6244;51.460;7.090;2023-02-18T23:26:16;100784.34;;;10.11;83.68
12360;BME280;6244;51.460;7.090;2023-02-18T23:31:15;100773.88;;;10.11;83.79
12360;BME280;6244;51.460;7.090;2023-02-18T23:36:14;100794.00;;;10.10;83.55
12360;BME280;6244;51.460;7.090;2023-02-18T23:41:11;100782.72;;;10.08;83.83
12360;BME280;6244;51.460;7.090;2023-02-18T23:46:07;100774.09;;;10.06;83.69
12360;BME280;6244;51.460;7.090;2023-02-18T23:51:08;100773.25;;;10.06;83.86
12360;BME280;6244;51.460;7.090;2023-02-18T23:56:06;100775.03;;;10.05;83.65
